sensor_id;sensor_type;location;lat;lon;timestamp;P1;durP1;ratioP1;P2;durP2;ratioP2
18647;SDS011;9453;50.294;18.644;2022-11-20T05:00:42;118.45;;;40.75;;
18647;SDS011;9453;50.294;18.644;2022-11-20T05:03:09;122.93;;;41.67;;
18647;SDS011;9453;50.294;18.644;2022-11-20T05:05:36;150.83;;;52.17;;
18647;SDS011;9453;50.294;18.644;2022-11-20T05:08:04;131.73;;;47.90;;
18647;SDS011;9453;50.294;18.644;2022-11-20T05:10:30;138.83;;;47.60;;
18647;SDS011;9453;50.294;18.644;2022-11-20T05:12:57;112.47;;;42.37;;
18647;SDS011;9453;50.294;18.644;2022-11-20T05:15:24;129.47;;;44.97;;
18647;SDS011;9453;50.294;18.644;2022-11-20T05:17:52;129.50;;;46.67;;
18647;SDS011;9453;50.294;18.644;2022-11-20T05:20:19;138.53;;;49.10;;
18647;SDS011;9453;50.294;18.644;2022-11-20T05:22:46;159.00;;;51.33;;
18647;SDS011;9453;50.294;18.644;2022-11-20T05:25:13;151.63;;;51.67;;
18647;SDS011;9453;50.294;18.644;2022-11-20T05:27:42;128.40;;;44.80;;
18647;SDS011;9453;50.294;18.644;2022-11-20T05:30:12;120.67;;;42.83;;
18647;SDS011;9453;50.294;18.644;2022-11-20T05:32:39;140.33;;;45.07;;
18647;SDS011;9453;50.294;18.644;2022-11-20T05:35:09;127.73;;;44.20;;
18647;SDS011;9453;50.294;18.644;2022-11-20T05:37:36;125.13;;;45.23;;
18647;SDS011;9453;50.294;18.644;2022-11-20T05:40:04;142.70;;;46.30;;
18647;SDS011;9453;50.294;18.644;2022-11-20T05:42:32;127.47;;;43.30;;
18647;SDS011;9453;50.294;18.644;2022-11-20T05:45:02;145.87;;;47.70;;
18647;SDS011;9453;50.294;18.644;2022-11-20T05:47:31;136.17;;;46.60;;
18647;SDS011;9453;50.294;18.644;2022-11-20T05:49:59;127.03;;;45.57;;
18647;SDS011;9453;50.294;18.644;2022-11-20T05:52:29;132.90;;;45.77;;
18647;SDS011;9453;50.294;18.644;2022-11-20T05:57:27;123.63;;;42.67;;
18647;SDS011;9453;50.294;18.644;2022-11-20T05:59:54;110.53;;;41.53;;
18647;SDS011;9453;50.294;18.644;2022-11-20T06:02:21;119.40;;;41.57;;
18647;SDS011;9453;50.294;18.644;2022-11-20T06:04:48;130.83;;;43.70;;
18647;SDS011;9453;50.294;18.644;2022-11-20T06:07:15;117.23;;;41.27;;
18647;SDS011;9453;50.294;18.644;2022-11-20T06:09:43;135.33;;;46.33;;
18647;SDS011;9453;50.294;18.644;2022-11-20T06:12:10;122.27;;;41.47;;
18647;SDS011;9453;50.294;18.644;2022-11-20T06:14:37;121.67;;;42.63;;
18647;SDS011;9453;50.294;18.644;2022-11-20T06:17:04;157.43;;;51.27;;
18647;SDS011;9453;50.294;18.644;2022-11-20T06:19:30;147.80;;;47.53;;
18647;SDS011;9453;50.294;18.644;2022-11-20T06:21:57;131.87;;;44.40;;
18647;SDS011;9453;50.294;18.644;2022-11-20T06:24:24;125.40;;;42.70;;
18647;SDS011;9453;50.294;18.644;2022-11-20T06:26:53;119.77;;;42.93;;
18647;SDS011;9453;50.294;18.644;2022-11-20T06:29:19;114.43;;;41.47;;
18647;SDS011;9453;50.294;18.644;2022-11-20T06:31:46;132.23;;;45.27;;
18647;SDS011;9453;50.294;18.644;2022-11-20T06:34:13;139.63;;;47.53;;
18647;SDS011;9453;50.294;18.644;2022-11-20T06:36:40;136.83;;;45.07;;
18647;SDS011;9453;50.294;18.644;2022-11-20T06:39:07;154.63;;;51.60;;
18647;SDS011;9453;50.294;18.644;2022-11-20T06:41:34;129.77;;;46.97;;
18647;SDS011;9453;50.294;18.644;2022-11-20T06:44:04;119.30;;;42.63;;
18647;SDS011;9453;50.294;18.644;2022-11-20T06:46:31;124.00;;;40.07;;
18647;SDS011;9453;50.294;18.644;2022-11-20T06:48:58;135.43;;;45.60;;
18647;SDS011;9453;50.294;18.644;2022-11-20T06:51:25;138.70;;;49.07;;
18647;SDS011;9453;50.294;18.644;2022-11-20T06:53:52;149.93;;;50.10;;
18647;SDS011;9453;50.294;18.644;2022-11-20T06:56:19;155.20;;;52.73;;
18647;SDS011;9453;50.294;18.644;2022-11-20T06:58:46;157.57;;;55.97;;
18647;SDS011;9453;50.294;18.644;2022-11-20T07:01:15;145.27;;;49.07;;
18647;SDS011;9453;50.294;18.644;2022-11-20T07:03:44;130.20;;;46.17;;
18647;SDS011;9453;50.294;18.644;2022-11-20T07:06:11;163.10;;;49.73;;
18647;SDS011;9453;50.294;18.644;2022-11-20T07:08:38;151.63;;;51.43;;
18647;SDS011;9453;50.294;18.644;2022-11-20T07:11:06;144.93;;;51.20;;
18647;SDS011;9453;50.294;18.644;2022-11-20T07:13:33;157.63;;;51.60;;
18647;SDS011;9453;50.294;18.644;2022-11-20T07:16:01;136.67;;;48.93;;
18647;SDS011;9453;50.294;18.644;2022-11-20T07:18:30;140.73;;;49.67;;
18647;SDS011;9453;50.294;18.644;2022-11-20T07:20:59;139.00;;;47.30;;
18647;SDS011;9453;50.294;18.644;2022-11-20T07:23:26;145.00;;;50.80;;
18647;SDS011;9453;50.294;18.644;2022-11-20T07:25:53;139.23;;;49.43;;
18647;SDS011;9453;50.294;18.644;2022-11-20T07:28:20;137.27;;;46.43;;
18647;SDS011;9453;50.294;18.644;2022-11-20T07:30:49;137.23;;;47.60;;
18647;SDS011;9453;50.294;18.644;2022-11-20T07:33:17;150.80;;;48.90;;
18647;SDS011;9453;50.294;18.644;2022-11-20T07:35:45;147.17;;;51.63;;
18647;SDS011;9453;50.294;18.644;2022-11-20T07:38:12;147.03;;;48.47;;
18647;SDS011;9453;50.294;18.644;2022-11-20T07:40:40;137.53;;;47.27;;
18647;SDS011;9453;50.294;18.644;2022-11-20T07:43:07;141.40;;;49.80;;
18647;SDS011;9453;50.294;18.644;2022-11-20T07:45:34;136.77;;;49.70;;
18647;SDS011;9453;50.294;18.644;2022-11-20T07:48:01;138.03;;;51.07;;
18647;SDS011;9453;50.294;18.644;2022-11-20T07:50:28;148.30;;;51.40;;
18647;SDS011;9453;50.294;18.644;2022-11-20T07:53:01;156.93;;;51.93;;
18647;SDS011;9453;50.294;18.644;2022-11-20T07:55:29;143.97;;;48.20;;
18647;SDS011;9453;50.294;18.644;2022-11-20T07:57:56;168.73;;;55.67;;
18647;SDS011;9453;50.294;18.644;2022-11-20T08:00:23;153.03;;;53.70;;
18647;SDS011;9453;50.294;18.644;2022-11-20T08:02:51;168.57;;;53.97;;
18647;SDS011;9453;50.294;18.644;2022-11-20T08:05:19;142.20;;;51.90;;
18647;SDS011;9453;50.294;18.644;2022-11-20T08:07:46;148.90;;;49.97;;
18647;SDS011;9453;50.294;18.644;2022-11-20T08:10:14;139.87;;;48.10;;
18647;SDS011;9453;50.294;18.644;2022-11-20T08:12:45;162.23;;;54.53;;
18647;SDS011;9453;50.294;18.644;2022-11-20T08:15:30;149.13;;;52.80;;
18647;SDS011;9453;50.294;18.644;2022-11-20T08:18:02;137.13;;;50.83;;
18647;SDS011;9453;50.294;18.644;2022-11-20T08:20:31;134.30;;;49.23;;
18647;SDS011;9453;50.294;18.644;2022-11-20T08:22:59;131.47;;;48.17;;
18647;SDS011;9453;50.294;18.644;2022-11-20T08:25:31;134.17;;;47.13;;
18647;SDS011;9453;50.294;18.644;2022-11-20T08:27:59;128.47;;;45.47;;
18647;SDS011;9453;50.294;18.644;2022-11-20T08:30:26;122.20;;;45.73;;
18647;SDS011;9453;50.294;18.644;2022-11-20T08:32:53;132.90;;;47.23;;
18647;SDS011;9453;50.294;18.644;2022-11-20T08:35:21;118.67;;;43.27;;
18647;SDS011;9453;50.294;18.644;2022-11-20T08:37:48;121.70;;;45.20;;
18647;SDS011;9453;50.294;18.644;2022-11-20T08:40:15;120.80;;;47.53;;
18647;SDS011;9453;50.294;18.644;2022-11-20T08:42:50;115.57;;;46.27;;
18647;SDS011;9453;50.294;18.644;2022-11-20T08:45:17;126.03;;;44.83;;
18647;SDS011;9453;50.294;18.644;2022-11-20T08:47:45;113.00;;;42.67;;
18647;SDS011;9453;50.294;18.644;2022-11-20T08:50:13;107.00;;;38.90;;
18647;SDS011;9453;50.294;18.644;2022-11-20T08:52:41;102.03;;;37.60;;
18647;SDS011;9453;50.294;18.644;2022-11-20T08:55:08;105.23;;;35.87;;
18647;SDS011;9453;50.294;18.644;2022-11-20T08:57:36;87.87;;;33.73;;
18647;SDS011;9453;50.294;18.644;2022-11-20T09:00:09;82.57;;;31.40;;
18647;SDS011;9453;50.294;18.644;2022-11-20T09:02:37;88.67;;;31.30;;
18647;SDS011;9453;50.294;18.644;2022-11-20T09:05:04;81.37;;;32.27;;
18647;SDS011;9453;50.294;18.644;2022-11-20T09:07:34;98.77;;;33.30;;
18647;SDS011;9453;50.294;18.644;2022-11-20T09:10:01;93.50;;;33.37;;
18647;SDS011;9453;50.294;18.644;2022-11-20T09:12:28;94.03;;;32.87;;
18647;SDS011;9453;50.294;18.644;2022-11-20T09:14:56;97.97;;;35.33;;
18647;SDS011;9453;50.294;18.644;2022-11-20T09:17:24;106.87;;;41.87;;
18647;SDS011;9453;50.294;18.644;2022-11-20T09:19:51;104.67;;;41.40;;
18647;SDS011;9453;50.294;18.644;2022-11-20T09:22:18;103.50;;;39.90;;
18647;SDS011;9453;50.294;18.644;2022-11-20T09:24:45;103.07;;;37.03;;
18647;SDS011;9453;50.294;18.644;2022-11-20T09:27:13;107.93;;;38.27;;
18647;SDS011;9453;50.294;18.644;2022-11-20T09:29:40;85.73;;;34.77;;
18647;SDS011;9453;50.294;18.644;2022-11-20T09:32:07;93.83;;;34.67;;
18647;SDS011;9453;50.294;18.644;2022-11-20T09:34:36;103.97;;;38.93;;
18647;SDS011;9453;50.294;18.644;2022-11-20T09:37:03;112.93;;;40.27;;
18647;SDS011;9453;50.294;18.644;2022-11-20T09:39:31;102.17;;;38.80;;
18647;SDS011;9453;50.294;18.644;2022-11-20T09:42:02;105.13;;;36.40;;
18647;SDS011;9453;50.294;18.644;2022-11-20T09:44:50;102.67;;;38.33;;
18647;SDS011;9453;50.294;18.644;2022-11-20T09:47:28;102.03;;;36.97;;
18647;SDS011;9453;50.294;18.644;2022-11-20T09:50:11;95.47;;;38.10;;
18647;SDS011;9453;50.294;18.644;2022-11-20T09:52:54;96.60;;;36.93;;
18647;SDS011;9453;50.294;18.644;2022-11-20T09:55:39;96.50;;;35.93;;
18647;SDS011;9453;50.294;18.644;2022-11-20T09:58:06;107.80;;;39.43;;
18647;SDS011;9453;50.294;18.644;2022-11-20T10:00:38;100.10;;;38.07;;
18647;SDS011;9453;50.294;18.644;2022-11-20T10:03:10;103.17;;;38.97;;
18647;SDS011;9453;50.294;18.644;2022-11-20T10:05:42;106.63;;;42.53;;
18647;SDS011;9453;50.294;18.644;2022-11-20T10:08:15;98.10;;;41.10;;
18647;SDS011;9453;50.294;18.644;2022-11-20T10:10:46;94.47;;;37.23;;
18647;SDS011;9453;50.294;18.644;2022-11-20T10:13:29;101.83;;;36.73;;
18647;SDS011;9453;50.294;18.644;2022-11-20T10:16:13;81.27;;;32.43;;
18647;SDS011;9453;50.294;18.644;2022-11-20T10:18:51;83.40;;;32.17;;
18647;SDS011;9453;50.294;18.644;2022-11-20T10:21:32;83.77;;;32.47;;
18647;SDS011;9453;50.294;18.644;2022-11-20T10:24:23;78.50;;;29.63;;
18647;SDS011;9453;50.294;18.644;2022-11-20T10:27:02;72.33;;;25.70;;
18647;SDS011;9453;50.294;18.644;2022-11-20T10:29:42;71.50;;;25.33;;
18647;SDS011;9453;50.294;18.644;2022-11-20T10:32:14;62.47;;;24.23;;
18647;SDS011;9453;50.294;18.644;2022-11-20T10:34:46;70.17;;;27.07;;
18647;SDS011;9453;50.294;18.644;2022-11-20T10:37:21;65.63;;;26.97;;
18647;SDS011;9453;50.294;18.644;2022-11-20T10:39:51;67.97;;;25.60;;
18647;SDS011;9453;50.294;18.644;2022-11-20T10:42:26;72.77;;;26.90;;
18647;SDS011;9453;50.294;18.644;2022-11-20T10:45:01;73.00;;;27.50;;
18647;SDS011;9453;50.294;18.644;2022-11-20T10:47:36;78.83;;;29.77;;
18647;SDS011;9453;50.294;18.644;2022-11-20T10:50:04;70.77;;;27.30;;
18647;SDS011;9453;50.294;18.644;2022-11-20T10:52:41;80.37;;;28.57;;
18647;SDS011;9453;50.294;18.644;2022-11-20T10:55:20;79.73;;;28.60;;
18647;SDS011;9453;50.294;18.644;2022-11-20T10:57:57;76.67;;;29.03;;
18647;SDS011;9453;50.294;18.644;2022-11-20T11:00:32;76.87;;;29.47;;
18647;SDS011;9453;50.294;18.644;2022-11-20T11:02:59;83.20;;;30.43;;
18647;SDS011;9453;50.294;18.644;2022-11-20T11:05:32;83.03;;;32.97;;
18647;SDS011;9453;50.294;18.644;2022-11-20T11:08:07;96.50;;;34.83;;
18647;SDS011;9453;50.294;18.644;2022-11-20T11:10:39;94.47;;;33.60;;
18647;SDS011;9453;50.294;18.644;2022-11-20T11:13:19;90.37;;;34.90;;
18647;SDS011;9453;50.294;18.644;2022-11-20T11:15:48;93.13;;;33.33;;
18647;SDS011;9453;50.294;18.644;2022-11-20T11:18:22;82.07;;;32.03;;
18647;SDS011;9453;50.294;18.644;2022-11-20T11:20:51;90.00;;;31.60;;
18647;SDS011;9453;50.294;18.644;2022-11-20T11:23:30;86.10;;;32.43;;
18647;SDS011;9453;50.294;18.644;2022-11-20T11:26:00;77.83;;;30.77;;
18647;SDS011;9453;50.294;18.644;2022-11-20T11:28:28;90.87;;;31.57;;
18647;SDS011;9453;50.294;18.644;2022-11-20T11:30:55;87.97;;;31.57;;
18647;SDS011;9453;50.294;18.644;2022-11-20T11:33:23;76.77;;;29.20;;
18647;SDS011;9453;50.294;18.644;2022-11-20T11:35:51;76.00;;;29.90;;
18647;SDS011;9453;50.294;18.644;2022-11-20T11:38:26;71.03;;;26.43;;
18647;SDS011;9453;50.294;18.644;2022-11-20T11:40:57;63.87;;;24.87;;
18647;SDS011;9453;50.294;18.644;2022-11-20T11:43:25;69.23;;;26.67;;
18647;SDS011;9453;50.294;18.644;2022-11-20T11:46:25;71.57;;;26.10;;
18647;SDS011;9453;50.294;18.644;2022-11-20T11:48:59;61.17;;;23.10;;
18647;SDS011;9453;50.294;18.644;2022-11-20T11:51:29;54.10;;;22.03;;
18647;SDS011;9453;50.294;18.644;2022-11-20T11:54:02;60.40;;;22.40;;
18647;SDS011;9453;50.294;18.644;2022-11-20T11:56:34;58.97;;;21.43;;
18647;SDS011;9453;50.294;18.644;2022-11-20T11:59:02;54.97;;;20.23;;
18647;SDS011;9453;50.294;18.644;2022-11-20T12:01:35;55.70;;;22.33;;
18647;SDS011;9453;50.294;18.644;2022-11-20T12:04:11;60.07;;;22.23;;
18647;SDS011;9453;50.294;18.644;2022-11-20T12:06:47;53.13;;;19.90;;
18647;SDS011;9453;50.294;18.644;2022-11-20T12:09:19;43.90;;;17.80;;
18647;SDS011;9453;50.294;18.644;2022-11-20T12:11:49;52.27;;;20.03;;
18647;SDS011;9453;50.294;18.644;2022-11-20T12:14:21;45.90;;;18.23;;
18647;SDS011;9453;50.294;18.644;2022-11-20T12:16:56;49.93;;;20.10;;
18647;SDS011;9453;50.294;18.644;2022-11-20T12:19:23;51.90;;;18.97;;
18647;SDS011;9453;50.294;18.644;2022-11-20T12:21:53;51.37;;;19.30;;
18647;SDS011;9453;50.294;18.644;2022-11-20T12:24:31;51.27;;;19.43;;
18647;SDS011;9453;50.294;18.644;2022-11-20T12:30:10;51.87;;;19.87;;
18647;SDS011;9453;50.294;18.644;2022-11-20T12:32:55;56.00;;;20.30;;
18647;SDS011;9453;50.294;18.644;2022-11-20T12:35:41;51.23;;;19.63;;
18647;SDS011;9453;50.294;18.644;2022-11-20T12:38:27;55.47;;;20.73;;
18647;SDS011;9453;50.294;18.644;2022-11-20T12:41:05;47.10;;;17.77;;
18647;SDS011;9453;50.294;18.644;2022-11-20T12:44:01;51.60;;;19.17;;
18647;SDS011;9453;50.294;18.644;2022-11-20T12:47:05;50.43;;;18.53;;
18647;SDS011;9453;50.294;18.644;2022-11-20T12:49:39;45.43;;;17.03;;
18647;SDS011;9453;50.294;18.644;2022-11-20T12:52:17;45.07;;;16.33;;
18647;SDS011;9453;50.294;18.644;2022-11-20T12:54:59;49.70;;;17.70;;
18647;SDS011;9453;50.294;18.644;2022-11-20T12:57:45;43.10;;;16.43;;
18647;SDS011;9453;50.294;18.644;2022-11-20T13:00:17;43.13;;;15.83;;
18647;SDS011;9453;50.294;18.644;2022-11-20T13:02:58;42.63;;;16.80;;
18647;SDS011;9453;50.294;18.644;2022-11-20T13:05:41;44.80;;;17.33;;
18647;SDS011;9453;50.294;18.644;2022-11-20T13:08:19;43.83;;;17.27;;
18647;SDS011;9453;50.294;18.644;2022-11-20T13:10:49;46.23;;;15.73;;
18647;SDS011;9453;50.294;18.644;2022-11-20T13:13:25;40.83;;;15.53;;
18647;SDS011;9453;50.294;18.644;2022-11-20T13:16:00;40.50;;;15.13;;
18647;SDS011;9453;50.294;18.644;2022-11-20T13:18:35;42.03;;;14.27;;
18647;SDS011;9453;50.294;18.644;2022-11-20T13:21:13;42.10;;;14.43;;
18647;SDS011;9453;50.294;18.644;2022-11-20T13:23:41;38.63;;;13.87;;
18647;SDS011;9453;50.294;18.644;2022-11-20T13:26:14;34.57;;;12.83;;
18647;SDS011;9453;50.294;18.644;2022-11-20T13:28:45;32.30;;;13.23;;
18647;SDS011;9453;50.294;18.644;2022-11-20T13:31:24;34.33;;;13.17;;
18647;SDS011;9453;50.294;18.644;2022-11-20T13:33:56;32.90;;;13.03;;
18647;SDS011;9453;50.294;18.644;2022-11-20T13:36:26;31.87;;;12.83;;
18647;SDS011;9453;50.294;18.644;2022-11-20T13:38:55;35.97;;;13.17;;
18647;SDS011;9453;50.294;18.644;2022-11-20T13:41:23;34.10;;;13.17;;
18647;SDS011;9453;50.294;18.644;2022-11-20T13:43:59;38.00;;;13.47;;
18647;SDS011;9453;50.294;18.644;2022-11-20T13:46:36;34.30;;;13.03;;
18647;SDS011;9453;50.294;18.644;2022-11-20T13:49:09;33.60;;;12.67;;
18647;SDS011;9453;50.294;18.644;2022-11-20T13:51:43;31.47;;;12.97;;
18647;SDS011;9453;50.294;18.644;2022-11-20T13:57:22;30.57;;;11.33;;
18647;SDS011;9453;50.294;18.644;2022-11-20T14:00:09;34.93;;;12.17;;
18647;SDS011;9453;50.294;18.644;2022-11-20T14:02:39;27.57;;;11.37;;
18647;SDS011;9453;50.294;18.644;2022-11-20T14:05:13;26.63;;;11.13;;
18647;SDS011;9453;50.294;18.644;2022-11-20T14:07:45;27.37;;;10.97;;
18647;SDS011;9453;50.294;18.644;2022-11-20T14:10:19;33.87;;;11.77;;
18647;SDS011;9453;50.294;18.644;2022-11-20T14:12:48;28.03;;;11.73;;
18647;SDS011;9453;50.294;18.644;2022-11-20T14:15:25;27.93;;;11.13;;
18647;SDS011;9453;50.294;18.644;2022-11-20T14:17:54;25.47;;;10.40;;
18647;SDS011;9453;50.294;18.644;2022-11-20T14:20:22;30.13;;;11.40;;
18647;SDS011;9453;50.294;18.644;2022-11-20T14:22:52;31.30;;;12.67;;
18647;SDS011;9453;50.294;18.644;2022-11-20T14:25:20;31.60;;;12.27;;
18647;SDS011;9453;50.294;18.644;2022-11-20T14:27:52;33.03;;;14.13;;
18647;SDS011;9453;50.294;18.644;2022-11-20T14:30:21;36.70;;;13.70;;
18647;SDS011;9453;50.294;18.644;2022-11-20T14:32:53;32.37;;;13.10;;
18647;SDS011;9453;50.294;18.644;2022-11-20T14:35:26;48.13;;;16.47;;
18647;SDS011;9453;50.294;18.644;2022-11-20T14:37:54;43.93;;;15.23;;
18647;SDS011;9453;50.294;18.644;2022-11-20T14:40:23;37.80;;;15.43;;
18647;SDS011;9453;50.294;18.644;2022-11-20T14:42:55;39.50;;;14.10;;
18647;SDS011;9453;50.294;18.644;2022-11-20T14:45:23;38.73;;;13.87;;
18647;SDS011;9453;50.294;18.644;2022-11-20T14:47:52;40.03;;;15.90;;
18647;SDS011;9453;50.294;18.644;2022-11-20T14:50:23;38.60;;;13.87;;
18647;SDS011;9453;50.294;18.644;2022-11-20T14:52:53;37.97;;;15.57;;
18647;SDS011;9453;50.294;18.644;2022-11-20T14:55:31;46.43;;;17.23;;
18647;SDS011;9453;50.294;18.644;2022-11-20T14:58:00;49.57;;;18.70;;
18647;SDS011;9453;50.294;18.644;2022-11-20T15:00:29;42.80;;;16.53;;
18647;SDS011;9453;50.294;18.644;2022-11-20T15:02:58;42.63;;;17.03;;
18647;SDS011;9453;50.294;18.644;2022-11-20T15:05:26;42.77;;;16.03;;
18647;SDS011;9453;50.294;18.644;2022-11-20T15:08:11;40.03;;;16.60;;
18647;SDS011;9453;50.294;18.644;2022-11-20T15:10:39;43.10;;;16.40;;
18647;SDS011;9453;50.294;18.644;2022-11-20T15:13:13;43.43;;;16.87;;
18647;SDS011;9453;50.294;18.644;2022-11-20T15:15:43;50.57;;;18.67;;
18647;SDS011;9453;50.294;18.644;2022-11-20T15:18:14;45.17;;;17.40;;
18647;SDS011;9453;50.294;18.644;2022-11-20T15:20:43;46.37;;;18.33;;
18647;SDS011;9453;50.294;18.644;2022-11-20T15:23:11;50.80;;;19.77;;
18647;SDS011;9453;50.294;18.644;2022-11-20T15:25:39;48.77;;;18.97;;
18647;SDS011;9453;50.294;18.644;2022-11-20T15:28:09;45.07;;;17.30;;
18647;SDS011;9453;50.294;18.644;2022-11-20T15:30:41;46.30;;;17.60;;
18647;SDS011;9453;50.294;18.644;2022-11-20T15:33:08;56.33;;;18.87;;
18647;SDS011;9453;50.294;18.644;2022-11-20T15:35:37;49.57;;;19.20;;
18647;SDS011;9453;50.294;18.644;2022-11-20T15:38:05;47.00;;;17.63;;
18647;SDS011;9453;50.294;18.644;2022-11-20T15:40:33;41.77;;;17.07;;
18647;SDS011;9453;50.294;18.644;2022-11-20T15:43:00;39.00;;;15.40;;
18647;SDS011;9453;50.294;18.644;2022-11-20T15:45:38;38.40;;;15.60;;
18647;SDS011;9453;50.294;18.644;2022-11-20T15:48:09;35.10;;;15.40;;
18647;SDS011;9453;50.294;18.644;2022-11-20T15:50:43;38.73;;;15.73;;
18647;SDS011;9453;50.294;18.644;2022-11-20T15:53:17;32.77;;;13.97;;
18647;SDS011;9453;50.294;18.644;2022-11-20T15:55:44;38.87;;;14.37;;
18647;SDS011;9453;50.294;18.644;2022-11-20T15:58:13;36.10;;;14.07;;
18647;SDS011;9453;50.294;18.644;2022-11-20T16:00:41;35.80;;;14.37;;
18647;SDS011;9453;50.294;18.644;2022-11-20T16:03:09;37.37;;;14.93;;
18647;SDS011;9453;50.294;18.644;2022-11-20T16:05:40;41.70;;;13.73;;
18647;SDS011;9453;50.294;18.644;2022-11-20T16:08:08;29.77;;;13.43;;
18647;SDS011;9453;50.294;18.644;2022-11-20T16:10:36;35.37;;;14.27;;
18647;SDS011;9453;50.294;18.644;2022-11-20T16:13:03;34.70;;;13.47;;
18647;SDS011;9453;50.294;18.644;2022-11-20T16:15:50;30.93;;;13.63;;
18647;SDS011;9453;50.294;18.644;2022-11-20T16:18:20;28.67;;;12.20;;
18647;SDS011;9453;50.294;18.644;2022-11-20T16:20:51;38.83;;;13.50;;
18647;SDS011;9453;50.294;18.644;2022-11-20T16:23:19;36.37;;;13.83;;
18647;SDS011;9453;50.294;18.644;2022-11-20T16:25:47;27.97;;;12.23;;
18647;SDS011;9453;50.294;18.644;2022-11-20T16:28:15;33.50;;;13.40;;
18647;SDS011;9453;50.294;18.644;2022-11-20T16:30:43;36.77;;;14.47;;
18647;SDS011;9453;50.294;18.644;2022-11-20T16:33:11;37.00;;;13.13;;
18647;SDS011;9453;50.294;18.644;2022-11-20T16:35:39;31.13;;;13.20;;
18647;SDS011;9453;50.294;18.644;2022-11-20T16:38:12;34.83;;;13.53;;
18647;SDS011;9453;50.294;18.644;2022-11-20T16:40:39;38.80;;;13.47;;
18647;SDS011;9453;50.294;18.644;2022-11-20T16:43:07;38.93;;;13.63;;
18647;SDS011;9453;50.294;18.644;2022-11-20T16:45:42;29.80;;;12.03;;
18647;SDS011;9453;50.294;18.644;2022-11-20T16:48:13;35.23;;;13.50;;
18647;SDS011;9453;50.294;18.644;2022-11-20T16:50:47;36.37;;;14.30;;
18647;SDS011;9453;50.294;18.644;2022-11-20T16:53:16;33.50;;;13.73;;
18647;SDS011;9453;50.294;18.644;2022-11-20T16:55:43;34.63;;;13.50;;
18647;SDS011;9453;50.294;18.644;2022-11-20T16:58:11;41.90;;;15.40;;
18647;SDS011;9453;50.294;18.644;2022-11-20T17:00:39;35.40;;;14.20;;
18647;SDS011;9453;50.294;18.644;2022-11-20T17:03:06;30.80;;;13.30;;
18647;SDS011;9453;50.294;18.644;2022-11-20T17:05:34;31.87;;;13.30;;
18647;SDS011;9453;50.294;18.644;2022-11-20T17:08:01;36.90;;;13.37;;
18647;SDS011;9453;50.294;18.644;2022-11-20T17:10:29;34.53;;;14.40;;
18647;SDS011;9453;50.294;18.644;2022-11-20T17:12:56;32.50;;;13.13;;
18647;SDS011;9453;50.294;18.644;2022-11-20T17:15:23;35.00;;;14.03;;
18647;SDS011;9453;50.294;18.644;2022-11-20T17:17:50;40.00;;;15.30;;
18647;SDS011;9453;50.294;18.644;2022-11-20T17:20:17;39.33;;;14.97;;
18647;SDS011;9453;50.294;18.644;2022-11-20T17:22:44;35.57;;;14.33;;
18647;SDS011;9453;50.294;18.644;2022-11-20T17:25:15;38.80;;;14.47;;
18647;SDS011;9453;50.294;18.644;2022-11-20T17:27:43;36.73;;;15.77;;
18647;SDS011;9453;50.294;18.644;2022-11-20T17:30:10;40.03;;;15.23;;
18647;SDS011;9453;50.294;18.644;2022-11-20T17:32:37;32.03;;;13.43;;
18647;SDS011;9453;50.294;18.644;2022-11-20T17:35:09;32.33;;;12.37;;
18647;SDS011;9453;50.294;18.644;2022-11-20T17:37:36;39.20;;;13.67;;
18647;SDS011;9453;50.294;18.644;2022-11-20T17:40:04;37.83;;;15.07;;
18647;SDS011;9453;50.294;18.644;2022-11-20T17:42:31;38.90;;;16.13;;
18647;SDS011;9453;50.294;18.644;2022-11-20T17:45:02;38.07;;;15.43;;
18647;SDS011;9453;50.294;18.644;2022-11-20T17:47:30;47.03;;;17.27;;
18647;SDS011;9453;50.294;18.644;2022-11-20T17:49:57;37.87;;;16.13;;
18647;SDS011;9453;50.294;18.644;2022-11-20T17:52:24;44.20;;;17.20;;
18647;SDS011;9453;50.294;18.644;2022-11-20T17:54:51;45.27;;;17.37;;
18647;SDS011;9453;50.294;18.644;2022-11-20T17:57:20;47.20;;;18.30;;
18647;SDS011;9453;50.294;18.644;2022-11-20T18:00:09;47.37;;;18.30;;
18647;SDS011;9453;50.294;18.644;2022-11-20T18:02:37;48.77;;;18.47;;
18647;SDS011;9453;50.294;18.644;2022-11-20T18:05:07;45.03;;;18.23;;
18647;SDS011;9453;50.294;18.644;2022-11-20T18:07:34;46.90;;;17.57;;
18647;SDS011;9453;50.294;18.644;2022-11-20T18:10:02;47.80;;;18.63;;
18647;SDS011;9453;50.294;18.644;2022-11-20T18:12:29;48.97;;;19.37;;
18647;SDS011;9453;50.294;18.644;2022-11-20T18:14:57;51.53;;;18.27;;
18647;SDS011;9453;50.294;18.644;2022-11-20T18:17:25;42.63;;;17.50;;
18647;SDS011;9453;50.294;18.644;2022-11-20T18:19:52;53.30;;;19.57;;
18647;SDS011;9453;50.294;18.644;2022-11-20T18:22:19;43.87;;;17.73;;
18647;SDS011;9453;50.294;18.644;2022-11-20T18:24:47;42.57;;;18.40;;
18647;SDS011;9453;50.294;18.644;2022-11-20T18:27:16;44.70;;;16.97;;
18647;SDS011;9453;50.294;18.644;2022-11-20T18:29:44;45.67;;;18.70;;
18647;SDS011;9453;50.294;18.644;2022-11-20T18:32:15;44.27;;;18.03;;
18647;SDS011;9453;50.294;18.644;2022-11-20T18:34:44;41.03;;;16.10;;
18647;SDS011;9453;50.294;18.644;2022-11-20T18:37:11;44.10;;;17.93;;
18647;SDS011;9453;50.294;18.644;2022-11-20T18:39:40;38.87;;;15.57;;
18647;SDS011;9453;50.294;18.644;2022-11-20T18:42:09;41.77;;;16.37;;
18647;SDS011;9453;50.294;18.644;2022-11-20T18:44:55;38.07;;;15.73;;
18647;SDS011;9453;50.294;18.644;2022-11-20T18:47:24;41.10;;;15.50;;
18647;SDS011;9453;50.294;18.644;2022-11-20T18:49:58;40.47;;;15.40;;
18647;SDS011;9453;50.294;18.644;2022-11-20T18:52:27;36.43;;;14.87;;
18647;SDS011;9453;50.294;18.644;2022-11-20T18:54:57;42.70;;;16.23;;
18647;SDS011;9453;50.294;18.644;2022-11-20T18:57:25;34.03;;;14.73;;
18647;SDS011;9453;50.294;18.644;2022-11-20T18:59:53;39.10;;;15.87;;
18647;SDS011;9453;50.294;18.644;2022-11-20T19:02:23;44.93;;;17.23;;
18647;SDS011;9453;50.294;18.644;2022-11-20T19:04:52;48.63;;;18.20;;
18647;SDS011;9453;50.294;18.644;2022-11-20T19:07:20;51.07;;;19.27;;
18647;SDS011;9453;50.294;18.644;2022-11-20T19:09:52;49.30;;;18.17;;
18647;SDS011;9453;50.294;18.644;2022-11-20T19:12:19;37.13;;;16.10;;
18647;SDS011;9453;50.294;18.644;2022-11-20T19:14:46;43.43;;;17.67;;
18647;SDS011;9453;50.294;18.644;2022-11-20T19:17:14;46.40;;;17.40;;
18647;SDS011;9453;50.294;18.644;2022-11-20T19:19:41;58.10;;;19.43;;
18647;SDS011;9453;50.294;18.644;2022-11-20T19:22:08;49.17;;;17.40;;
18647;SDS011;9453;50.294;18.644;2022-11-20T19:24:37;47.87;;;17.37;;
18647;SDS011;9453;50.294;18.644;2022-11-20T19:27:04;56.20;;;19.80;;
18647;SDS011;9453;50.294;18.644;2022-11-20T19:29:32;52.87;;;19.80;;
18647;SDS011;9453;50.294;18.644;2022-11-20T19:31:59;54.53;;;20.73;;
18647;SDS011;9453;50.294;18.644;2022-11-20T19:34:28;53.13;;;19.47;;
18647;SDS011;9453;50.294;18.644;2022-11-20T19:36:57;47.90;;;18.10;;
18647;SDS011;9453;50.294;18.644;2022-11-20T19:39:25;51.13;;;18.73;;
18647;SDS011;9453;50.294;18.644;2022-11-20T19:41:53;47.00;;;18.17;;
18647;SDS011;9453;50.294;18.644;2022-11-20T19:44:22;45.93;;;16.77;;
18647;SDS011;9453;50.294;18.644;2022-11-20T19:46:49;40.67;;;15.83;;